This is the latest recevied weather packets stored in our database for station/object KO4ILY. If no packets are shown the sender has not sent any weather packets the latest 10 day(s).
| Time | Temp. | Humidity | Pressure | Rain* | Wind** | Luminosity | Snow |
|---|---|---|---|---|---|---|---|
| 1777389328 | 17.22° C | 95% | 1020.4 hPa | 0 mm | - | 249 W/m² | - |
| 1777385729 | 15.56° C | 95% | 1020.3 hPa | 6.35 mm | - | 48 W/m² | - |
| 1777384518 | 15.56° C | 94% | 1020.5 hPa | 7.62 mm | - | 21 W/m² | - |
| 1777383918 | 15.56° C | 95% | 1020.7 hPa | 7.87 mm | - | 23 W/m² | - |
| 1777383319 | 15.56° C | 95% | 1020.1 hPa | 7.11 mm | - | 17 W/m² | - |
| 1777379716 | 15° C | 95% | 1020.8 hPa | 4.57 mm | - | 18 W/m² | - |
| 1777379116 | 15° C | 94% | 1021.2 hPa | 3.81 mm | - | 9 W/m² | - |
| 1777371316 | 15° C | 93% | 1021.2 hPa | 11.94 mm | - | 0 W/m² | - |
| 1777370716 | 15° C | 93% | 1022.2 hPa | 7.87 mm | - | 0 W/m² | - |
| 1777367117 | 15° C | 89% | 1017.1 hPa | 6.86 mm | - | 0 W/m² | - |
| 1777362918 | 16.67° C | 83% | 1017 hPa | 5.59 mm | - | 0 W/m² | - |
| 1777362316 | 19.44° C | 65% | 1017 hPa | 4.06 mm | - | 0 W/m² | - |
| 1777361116 | 19.44° C | 61% | 1016.4 hPa | 0 mm | - | 0 W/m² | - |
| 1777360516 | 20° C | 61% | 1016.7 hPa | 0 mm | - | 0 W/m² | - |
| 1777356317 | 20° C | 61% | 1017.6 hPa | 0 mm | - | 0 W/m² | - |
| 1777353918 | 20.56° C | 61% | 1017.9 hPa | 0 mm | - | 0 W/m² | - |
| 1777351519 | 20.56° C | 60% | 1018.1 hPa | 0 mm | - | 0 W/m² | - |
| 1777349117 | 21.11° C | 60% | 1017.8 hPa | 0 mm | - | 0 W/m² | - |
| 1777348516 | 21.11° C | 59% | 1017.7 hPa | 0 mm | - | 0 W/m² | - |
| 1777343718 | 21.67° C | 61% | 1017.5 hPa | 0 mm | - | 0 W/m² | - |
| 1777341919 | 22.22° C | 60% | 1017.1 hPa | 0 mm | - | 0 W/m² | - |
| 1777339516 | 22.78° C | 60% | 1016.6 hPa | 0 mm | - | 0 W/m² | - |
| 1777335318 | 23.89° C | 58% | 1016.4 hPa | 0 mm | - | 8 W/m² | - |
| 1777332918 | 24.44° C | 57% | 1015.8 hPa | 0 mm | - | 43 W/m² | - |
| 1777332318 | 25° C | 57% | 1015.6 hPa | 0 mm | - | 48 W/m² | - |
* Rain latest hour (hover to see other rain measurements)
** Current wind speed in m/s (hover to see current wind gust speed)